Time;durP1;ratioP1;P1;durP2;ratioP2;P2;SDS_P1;SDS_P2;PMS_P1;PMS_P2;Temp;Humidity;BMP_temperature;BMP_pressure;BME280_temperature;BME280_humidity;BME280_pressure;Samples;Min_cycle;Max_cycle;Signal;HPM_P1;HPM_P2
2023/05/21 00:04:05;;;;;;;3.67;3.47;;;12.00;99.90;;;;;;2611311;39;20740;-71
2023/05/21 00:09:53;;;;;;;3.40;3.30;;;11.90;99.90;;;;;;2613955;46;20414;-71
2023/05/21 00:15:40;;;;;;;3.10;3.00;;;11.80;99.90;;;;;;2612600;54;20189;-70
2023/05/21 00:21:28;;;;;;;3.07;2.97;;;11.70;99.90;;;;;;2612194;31;20627;-70
2023/05/21 00:27:16;;;;;;;2.87;2.77;;;11.70;99.90;;;;;;2611618;54;20122;-70
2023/05/21 00:33:04;;;;;;;3.47;3.37;;;11.70;99.90;;;;;;2611255;54;20688;-71
2023/05/21 00:38:52;;;;;;;3.07;2.97;;;11.70;99.90;;;;;;2611265;54;20304;-72
2023/05/21 00:44:40;;;;;;;3.00;2.90;;;11.60;99.90;;;;;;2611966;54;20382;-70
2023/05/21 00:50:29;;;;;;;3.00;2.90;;;11.70;99.90;;;;;;2611503;54;20250;-70
2023/05/21 00:56:18;;;;;;;2.77;2.67;;;11.90;99.90;;;;;;2614310;54;20399;-72
2023/05/21 01:02:08;;;;;;;2.80;2.70;;;12.00;99.90;;;;;;2614573;54;20399;-73
2023/05/21 01:07:57;;;;;;;2.57;2.47;;;12.20;99.90;;;;;;2613044;54;20483;-73
2023/05/21 01:18:00;;;;;;;2.80;2.70;;;12.20;99.90;;;;;;2610875;54;20407;-72
2023/05/21 01:23:48;;;;;;;3.80;3.60;;;12.20;99.90;;;;;;2613833;54;20402;-73
2023/05/21 01:29:36;;;;;;;2.53;2.43;;;12.10;99.90;;;;;;2609833;54;20130;-73
2023/05/21 01:35:34;;;;;;;3.43;3.27;;;12.20;99.90;;;;;;2610981;54;20262;-73
2023/05/21 01:41:22;;;;;;;2.90;2.80;;;12.20;99.90;;;;;;2610905;39;20732;-72
2023/05/21 01:47:12;;;;;;;2.90;2.80;;;12.10;99.90;;;;;;2610878;54;20535;-72
2023/05/21 01:53:02;;;;;;;2.60;2.50;;;12.10;99.90;;;;;;2610309;54;20378;-73
2023/05/21 01:58:50;;;;;;;2.80;2.70;;;12.00;99.90;;;;;;2609480;54;20399;-72
2023/05/21 02:04:40;;;;;;;2.97;2.87;;;11.90;99.90;;;;;;2610091;54;20998;-73
2023/05/21 02:10:28;;;;;;;3.00;2.90;;;11.90;99.90;;;;;;2613448;39;20791;-73
2023/05/21 02:16:33;;;;;;;2.90;2.80;;;11.90;99.90;;;;;;2611149;39;20554;-73
2023/05/21 02:22:20;;;;;;;3.00;2.90;;;11.80;99.90;;;;;;2607945;54;20958;-71
2023/05/21 02:28:07;;;;;;;2.73;2.63;;;11.60;99.90;;;;;;2607893;54;20272;-72
2023/05/21 02:33:55;;;;;;;3.40;3.30;;;11.50;99.90;;;;;;2607588;54;20134;-72
2023/05/21 02:39:42;;;;;;;2.63;2.53;;;11.60;99.90;;;;;;2607866;54;20151;-72
2023/05/21 02:45:29;;;;;;;2.43;2.33;;;11.60;99.90;;;;;;2608717;54;20172;-72
2023/05/21 02:51:16;;;;;;;2.60;2.50;;;11.50;99.90;;;;;;2608951;39;20509;-72
2023/05/21 02:57:04;;;;;;;2.67;2.57;;;11.50;99.90;;;;;;2609390;46;20178;-71
2023/05/21 03:02:52;;;;;;;2.30;2.20;;;11.60;99.90;;;;;;2609915;54;20544;-72
2023/05/21 03:08:40;;;;;;;2.37;2.27;;;11.60;99.90;;;;;;2610094;54;20961;-72
2023/05/21 03:18:03;;;;;;;4.10;3.90;;;11.40;99.90;;;;;;2609932;54;20422;-72
2023/05/21 03:23:51;;;;;;;2.37;2.27;;;11.50;99.90;;;;;;2609617;54;20976;-72
2023/05/21 03:29:39;;;;;;;2.40;2.30;;;11.60;99.90;;;;;;2610881;39;20738;-71
2023/05/21 03:35:27;;;;;;;2.10;2.00;;;11.50;99.90;;;;;;2611439;54;20201;-72
2023/05/21 03:41:14;;;;;;;2.13;2.03;;;11.50;99.90;;;;;;2610379;54;20137;-72
2023/05/21 03:47:04;;;;;;;2.03;1.93;;;11.40;99.90;;;;;;2609857;54;20154;-71
2023/05/21 03:52:51;;;;;;;2.40;2.30;;;11.40;99.90;;;;;;2610595;54;20980;-72
2023/05/21 03:58:39;;;;;;;2.50;2.40;;;11.40;99.90;;;;;;2610328;54;20649;-72
2023/05/21 04:04:28;;;;;;;2.60;2.50;;;11.60;99.90;;;;;;2611061;54;20135;-71
2023/05/21 04:10:16;;;;;;;2.57;2.47;;;11.60;99.90;;;;;;2610940;54;20430;-72
2023/05/21 04:13:32;;;;;;;2.67;2.57;;;11.60;99.90;;;;;;2609676;54;20400;-72
2023/05/21 04:15:57;;;;;;;2.50;2.40;;;11.70;99.90;;;;;;2609440;54;20254;-72
2023/05/21 04:21:45;;;;;;;2.60;2.50;;;11.90;99.90;;;;;;2610814;54;20182;-70
2023/05/21 04:27:33;;;;;;;2.67;2.57;;;12.00;99.90;;;;;;2610623;54;20123;-73
2023/05/21 04:33:21;;;;;;;2.60;2.50;;;12.00;99.90;;;;;;2610523;54;20414;-72
2023/05/21 04:39:09;;;;;;;3.57;3.27;;;12.10;99.90;;;;;;2610480;54;20375;-72
2023/05/21 04:44:58;;;;;;;3.00;2.90;;;12.30;99.90;;;;;;2610866;46;20171;-72
2023/05/21 04:50:45;;;;;;;3.47;3.37;;;12.30;99.90;;;;;;2610748;54;20398;-72
2023/05/21 04:56:33;;;;;;;3.33;3.23;;;12.50;99.90;;;;;;2610731;54;20135;-71
2023/05/21 05:02:21;;;;;;;3.77;3.57;;;12.60;99.90;;;;;;2611474;54;20228;-72
2023/05/21 05:08:09;;;;;;;3.10;3.00;;;12.70;99.90;;;;;;2610956;54;20134;-72
2023/05/21 05:24:10;;;;;;;3.87;3.67;;;13.20;99.90;;;;;;2607591;54;21060;-74
2023/05/21 05:29:57;;;;;;;4.50;4.30;;;13.20;99.90;;;;;;2607907;54;20138;-72
2023/05/21 05:35:44;;;;;;;3.90;3.70;;;13.30;99.90;;;;;;2607805;54;20131;-72
2023/05/21 05:41:32;;;;;;;6.10;5.60;;;13.50;99.90;;;;;;2608789;54;21050;-72
2023/05/21 05:47:20;;;;;;;7.70;7.03;;;13.50;99.90;;;;;;2609041;54;20183;-71
2023/05/21 05:53:07;;;;;;;4.47;4.27;;;13.60;99.90;;;;;;2607462;54;20459;-72
2023/05/21 05:58:54;;;;;;;4.90;4.60;;;13.80;99.90;;;;;;2609810;39;20524;-72
2023/05/21 06:04:42;;;;;;;9.30;7.70;;;13.90;99.90;;;;;;2608942;54;20419;-71
2023/05/21 06:10:30;;;;;;;5.60;5.30;;;14.00;99.90;;;;;;2608242;39;20387;-72
2023/05/21 06:13:32;;;;;;;5.70;5.40;;;14.10;99.90;;;;;;2609194;39;20820;-72
2023/05/21 06:15:58;;;;;;;4.53;4.33;;;14.20;99.90;;;;;;2608799;54;20177;-71
2023/05/21 06:21:46;;;;;;;6.13;5.73;;;14.50;99.90;;;;;;2611573;54;20263;-72
2023/05/21 06:27:33;;;;;;;6.87;6.27;;;14.40;99.90;;;;;;2609785;54;20138;-72
2023/05/21 06:33:22;;;;;;;4.87;4.67;;;14.70;99.90;;;;;;2609887;54;20170;-73
2023/05/21 06:39:09;;;;;;;5.50;5.30;;;14.80;99.90;;;;;;2609596;54;20399;-72
2023/05/21 06:44:57;;;;;;;11.37;10.47;;;14.70;99.90;;;;;;2609812;54;20177;-72
2023/05/21 06:50:45;;;;;;;5.90;5.70;;;14.80;99.90;;;;;;2609597;39;20482;-72
2023/05/21 06:56:33;;;;;;;6.97;6.57;;;15.30;99.90;;;;;;2610197;54;20133;-72
2023/05/21 07:02:21;;;;;;;8.13;7.83;;;15.50;99.90;;;;;;2607433;54;20688;-73
2023/05/21 07:08:09;;;;;;;7.17;6.93;;;15.60;99.90;;;;;;2609076;54;20134;-72
2023/05/21 07:18:02;;;;;;;6.47;6.27;;;16.10;99.90;;;;;;2609922;54;20411;-72
2023/05/21 07:23:50;;;;;;;8.00;7.70;;;16.00;99.90;;;;;;2611582;54;20394;-73
2023/05/21 07:29:39;;;;;;;10.93;10.17;;;16.70;99.90;;;;;;2613283;54;20158;-73
2023/05/21 07:35:27;;;;;;;7.90;7.60;;;16.60;99.90;;;;;;2613503;54;20403;-73
2023/05/21 07:41:15;;;;;;;8.47;8.17;;;17.00;99.90;;;;;;2613647;54;20958;-72
2023/05/21 07:47:03;;;;;;;8.23;7.93;;;17.10;99.90;;;;;;2611483;54;20134;-72
2023/05/21 07:52:51;;;;;;;8.37;8.07;;;17.30;99.90;;;;;;2613908;39;20519;-72
2023/05/21 07:58:39;;;;;;;8.57;8.27;;;17.10;99.90;;;;;;2612175;54;20150;-72
2023/05/21 08:04:26;;;;;;;9.40;9.00;;;16.80;99.90;;;;;;2610946;54;20425;-72
2023/05/21 08:10:14;;;;;;;9.23;8.80;;;17.20;99.90;;;;;;2608088;54;20170;-73
2023/05/21 08:13:32;;;;;;;8.70;8.40;;;17.60;99.90;;;;;;2605864;47;20427;-72
2023/05/21 08:15:58;;;;;;;9.37;8.97;;;17.80;99.90;;;;;;2606033;54;20427;-72
2023/05/21 08:21:46;;;;;;;9.17;8.80;;;18.20;99.90;;;;;;2607245;46;20153;-72
2023/05/21 08:27:34;;;;;;;10.37;9.97;;;18.20;99.90;;;;;;2609220;39;20743;-73
2023/05/21 08:33:22;;;;;;;11.50;11.00;;;18.70;99.90;;;;;;2610473;54;20286;-72
2023/05/21 08:39:09;;;;;;;11.33;10.83;;;19.40;99.90;;;;;;2610332;54;20288;-72
2023/05/21 08:44:59;;;;;;;10.83;10.33;;;19.80;99.90;;;;;;2612466;54;20779;-73
2023/05/21 08:50:48;;;;;;;11.93;11.33;;;19.00;99.90;;;;;;2610696;54;20422;-72
2023/05/21 08:56:37;;;;;;;12.73;12.13;;;19.60;99.90;;;;;;2609630;54;20511;-73
2023/05/21 09:02:25;;;;;;;10.93;10.53;;;19.40;99.90;;;;;;2610295;54;20391;-73
2023/05/21 09:08:18;;;;;;;14.07;13.07;;;19.80;99.90;;;;;;2611053;54;20154;-71
2023/05/21 09:18:02;;;;;;;11.60;11.13;;;21.40;99.90;;;;;;2610241;54;20369;-73
2023/05/21 09:23:57;;;;;;;11.37;10.97;;;20.80;99.90;;;;;;2610471;54;20419;-73
2023/05/21 09:29:45;;;;;;;18.07;16.50;;;22.10;99.90;;;;;;2610325;54;20926;-73
2023/05/21 09:35:33;;;;;;;13.03;12.43;;;21.50;93.60;;;;;;2610382;54;20203;-72
2023/05/21 09:48:00;;;;;;;11.53;11.13;;;21.90;90.40;;;;;;2613966;38;20717;-73
2023/05/21 09:53:48;;;;;;;19.10;17.60;;;21.70;93.20;;;;;;2612019;38;20381;-73
2023/05/21 09:59:38;;;;;;;16.93;15.63;;;22.10;89.30;;;;;;2617620;54;20458;-73
2023/05/21 10:05:27;;;;;;;10.17;9.87;;;21.30;94.80;;;;;;2614626;54;20386;-75
2023/05/21 10:11:16;;;;;;;14.90;14.10;;;22.00;85.60;;;;;;2615174;54;20394;-75
2023/05/21 10:17:06;;;;;;;14.43;13.27;;;22.10;77.00;;;;;;2614669;54;20494;-73
2023/05/21 10:22:55;;;;;;;15.40;14.70;;;21.80;74.50;;;;;;2614108;38;21834;-73
2023/05/21 10:28:44;;;;;;;12.30;11.70;;;22.50;75.60;;;;;;2615685;54;20422;-72
2023/05/21 10:34:33;;;;;;;10.93;10.50;;;21.80;79.10;;;;;;2618350;54;20483;-74
2023/05/21 10:40:20;;;;;;;17.53;16.23;;;21.80;81.10;;;;;;2614762;54;21111;-73
2023/05/21 10:59:41;;;;;;;14.37;13.60;;;21.40;82.50;;;;;;2609032;54;20424;-74
2023/05/21 11:09:11;;;;;;;13.83;13.13;;;22.10;71.50;;;;;;2611077;54;20422;-72
2023/05/21 11:11:45;;;;;;;21.53;16.43;;;23.40;67.30;;;;;;2613128;39;20859;-74
2023/05/21 11:17:43;;;;;;;19.10;17.63;;;23.00;69.40;;;;;;2612014;54;20384;-74
2023/05/21 11:23:50;;;;;;;18.10;16.80;;;23.30;64.20;;;;;;2609301;54;20390;-73
2023/05/21 11:29:43;;;;;;;14.03;13.33;;;23.00;63.20;;;;;;2609077;54;20423;-74
2023/05/21 11:35:37;;;;;;;14.07;13.47;;;24.00;57.90;;;;;;2609634;54;20397;-74
2023/05/21 11:41:25;;;;;;;19.10;17.50;;;23.60;58.90;;;;;;2611708;39;20708;-74
2023/05/21 11:47:14;;;;;;;20.63;14.50;;;22.80;71.60;;;;;;2609390;54;20211;-74
2023/05/21 11:53:03;;;;;;;11.77;11.37;;;23.20;65.60;;;;;;2604374;54;20531;-74
2023/05/21 11:58:54;;;;;;;17.77;16.67;;;23.10;66.80;;;;;;2600444;54;20418;-73
2023/05/21 12:04:43;;;;;;;12.47;12.07;;;22.70;69.00;;;;;;2607404;54;20426;-74
2023/05/21 12:10:31;;;;;;;12.23;11.77;;;23.20;70.40;;;;;;2602007;54;20391;-74
2023/05/21 12:16:21;;;;;;;14.90;14.20;;;22.90;70.60;;;;;;2610564;54;20130;-74
2023/05/21 12:22:09;;;;;;;13.33;12.70;;;23.10;69.00;;;;;;2614144;54;20427;-74
2023/05/21 12:28:00;;;;;;;12.20;11.70;;;23.20;69.60;;;;;;2614635;54;20500;-74
2023/05/21 12:33:51;;;;;;;15.53;14.57;;;24.20;59.40;;;;;;2613842;54;20391;-74
2023/05/21 12:49:33;;;;;;;14.70;13.73;;;24.10;58.30;;;;;;2611893;54;20419;-75
2023/05/21 12:55:24;;;;;;;14.97;14.13;;;24.30;50.40;;;;;;2612136;54;20388;-74
2023/05/21 13:01:11;;;;;;;12.57;12.13;;;25.30;43.70;;;;;;2611406;54;21059;-74
2023/05/21 13:06:59;;;;;;;18.00;16.70;;;25.10;44.90;;;;;;2611878;54;20157;-74
2023/05/21 13:12:46;;;;;;;16.20;15.27;;;24.60;50.30;;;;;;2607869;54;20125;-73
2023/05/21 13:18:35;;;;;;;17.00;15.57;;;25.20;45.20;;;;;;2610001;54;20161;-74
2023/05/21 13:24:23;;;;;;;16.30;15.30;;;24.70;47.70;;;;;;2614820;31;20930;-74
2023/05/21 13:30:11;;;;;;;13.53;12.90;;;25.90;42.30;;;;;;2609586;54;20138;-74
2023/05/21 13:35:59;;;;;;;11.80;11.40;;;25.70;35.50;;;;;;2613952;54;20415;-75
2023/05/21 13:41:47;;;;;;;16.93;16.00;;;25.40;41.90;;;;;;2612586;54;20131;-75
2023/05/21 13:44:13;;;;;;;16.20;15.30;;;25.50;43.20;;;;;;2612887;54;20913;-75
2023/05/21 13:46:39;;;;;;;14.40;13.80;;;25.70;41.90;;;;;;2612543;47;20430;-73
2023/05/21 13:52:27;;;;;;;13.17;12.57;;;26.50;37.80;;;;;;2614178;54;20259;-75
2023/05/21 13:58:15;;;;;;;14.87;14.17;;;26.60;38.30;;;;;;2613974;47;20145;-75
2023/05/21 14:04:04;;;;;;;16.13;15.30;;;26.40;37.10;;;;;;2613244;54;20137;-74
2023/05/21 14:09:52;;;;;;;16.03;14.83;;;25.70;39.40;;;;;;2613447;54;21114;-75
2023/05/21 14:15:40;;;;;;;16.30;15.40;;;25.50;41.00;;;;;;2611203;54;20138;-75
2023/05/21 14:21:28;;;;;;;12.40;11.90;;;25.80;41.70;;;;;;2613755;54;20387;-75
2023/05/21 14:27:15;;;;;;;13.13;12.63;;;26.00;40.40;;;;;;2613687;54;20149;-74
2023/05/21 14:33:03;;;;;;;18.20;17.10;;;26.50;35.80;;;;;;2613823;54;20134;-74
2023/05/21 14:38:51;;;;;;;15.93;14.77;;;26.40;35.70;;;;;;2614467;54;20411;-74
2023/05/21 14:48:48;;;;;;;12.80;12.30;;;26.70;33.00;;;;;;2612568;54;20414;-75
2023/05/21 14:54:36;;;;;;;12.33;11.83;;;26.10;30.20;;;;;;2614888;39;20807;-74
2023/05/21 15:00:24;;;;;;;13.10;12.60;;;25.80;33.20;;;;;;2614264;54;20495;-74
2023/05/21 15:06:12;;;;;;;17.40;16.30;;;26.10;31.30;;;;;;2614648;54;20352;-74
2023/05/21 15:12:00;;;;;;;12.47;11.97;;;27.00;29.80;;;;;;2613688;54;20150;-74
2023/05/21 15:17:49;;;;;;;15.53;14.47;;;26.90;29.60;;;;;;2614437;54;20149;-75
2023/05/21 15:23:37;;;;;;;13.47;12.87;;;26.30;30.30;;;;;;2614104;54;20395;-74
2023/05/21 15:29:24;;;;;;;14.20;13.50;;;26.40;31.40;;;;;;2614103;54;20158;-74
2023/05/21 15:35:13;;;;;;;17.13;15.73;;;26.00;34.70;;;;;;2613620;54;20149;-74
2023/05/21 15:41:01;;;;;;;14.90;14.20;;;26.20;36.90;;;;;;2614571;54;20411;-74
2023/05/21 15:46:59;;;;;;;14.07;13.37;;;26.50;36.20;;;;;;2613436;54;20759;-74
2023/05/21 15:52:46;;;;;;;13.40;12.80;;;26.20;33.20;;;;;;2612360;54;20567;-75
2023/05/21 15:58:33;;;;;;;13.07;12.47;;;26.50;33.80;;;;;;2613601;39;20434;-74
2023/05/21 16:04:20;;;;;;;16.40;15.70;;;26.70;31.70;;;;;;2612336;54;20129;-75
2023/05/21 16:10:08;;;;;;;18.73;17.40;;;26.60;34.10;;;;;;2612990;54;20178;-75
2023/05/21 16:15:55;;;;;;;13.13;12.67;;;26.80;32.40;;;;;;2613157;54;20976;-74
2023/05/21 16:21:43;;;;;;;15.37;14.30;;;26.30;30.30;;;;;;2612530;54;20119;-73
2023/05/21 16:27:30;;;;;;;15.03;14.23;;;26.10;33.00;;;;;;2612528;54;20167;-74
2023/05/21 16:33:18;;;;;;;15.30;14.60;;;26.10;34.90;;;;;;2613436;54;20198;-74
2023/05/21 16:39:05;;;;;;;11.63;11.23;;;25.30;37.60;;;;;;2614557;54;20138;-74
2023/05/21 16:48:46;;;;;;;16.33;15.33;;;24.50;46.90;;;;;;2613898;54;20442;-75
2023/05/21 16:54:34;;;;;;;13.30;12.70;;;24.40;51.70;;;;;;2613705;54;20418;-73
2023/05/21 16:57:38;;;;;;;11.60;11.20;;;24.40;53.70;;;;;;2612033;47;20423;-75
2023/05/21 17:00:04;;;;;;;12.60;12.10;;;24.50;55.40;;;;;;2612019;54;20151;-74
2023/05/21 17:05:52;;;;;;;12.47;11.97;;;24.20;57.90;;;;;;2613909;54;20535;-74
2023/05/21 17:11:42;;;;;;;11.87;11.47;;;24.30;57.10;;;;;;2614356;54;20140;-75
2023/05/21 17:17:30;;;;;;;17.20;16.00;;;24.50;56.20;;;;;;2614304;39;20791;-75
2023/05/21 17:23:18;;;;;;;12.10;11.70;;;24.20;65.40;;;;;;2614384;54;20153;-75
2023/05/21 17:29:05;;;;;;;10.90;10.60;;;24.00;66.40;;;;;;2612567;54;20391;-75
2023/05/21 17:34:53;;;;;;;16.20;15.20;;;24.00;72.60;;;;;;2611421;39;20861;-75
2023/05/21 17:40:41;;;;;;;15.67;14.87;;;23.70;73.70;;;;;;2613746;54;20270;-75
2023/05/21 17:46:31;;;;;;;15.13;14.00;;;23.50;81.60;;;;;;2610295;54;20434;-75
2023/05/21 17:52:18;;;;;;;10.50;10.20;;;23.50;84.70;;;;;;2612987;54;20379;-74
2023/05/21 17:58:08;;;;;;;12.00;11.40;;;23.30;89.40;;;;;;2613341;54;20186;-75
2023/05/21 18:03:56;;;;;;;11.70;11.30;;;23.10;91.00;;;;;;2606846;54;20415;-74
2023/05/21 18:09:44;;;;;;;12.77;12.20;;;23.00;93.30;;;;;;2608485;46;20166;-74
2023/05/21 18:15:33;;;;;;;16.13;15.13;;;22.90;95.60;;;;;;2609302;54;20138;-74
2023/05/21 18:21:20;;;;;;;11.30;10.90;;;22.90;98.70;;;;;;2612702;54;20414;-75
2023/05/21 18:27:11;;;;;;;10.30;9.90;;;22.80;99.90;;;;;;2610545;46;20146;-75
2023/05/21 18:32:59;;;;;;;10.47;10.07;;;22.70;99.90;;;;;;2614291;54;20418;-75
2023/05/21 18:38:48;;;;;;;10.60;10.20;;;22.60;99.90;;;;;;2613002;54;20407;-73
2023/05/21 18:48:51;;;;;;;10.53;10.13;;;22.30;99.90;;;;;;2613170;54;20394;-74
2023/05/21 18:54:39;;;;;;;9.43;9.13;;;22.30;99.90;;;;;;2610205;54;20467;-74
2023/05/21 19:00:26;;;;;;;8.60;8.30;;;22.20;99.90;;;;;;2610436;54;20174;-75
2023/05/21 19:06:14;;;;;;;9.53;9.20;;;22.10;99.90;;;;;;2608377;54;20158;-75
2023/05/21 19:12:02;;;;;;;9.53;9.23;;;22.00;99.90;;;;;;2610974;54;20186;-74
2023/05/21 19:17:51;;;;;;;9.10;8.80;;;21.90;99.90;;;;;;2612950;54;20399;-74
2023/05/21 19:23:39;;;;;;;9.73;9.43;;;21.80;99.90;;;;;;2611964;54;20427;-74
2023/05/21 19:29:28;;;;;;;9.40;9.10;;;21.70;99.90;;;;;;2614051;54;20178;-74
2023/05/21 19:35:15;;;;;;;9.23;8.93;;;21.60;99.90;;;;;;2614281;54;20423;-75
2023/05/21 19:41:03;;;;;;;9.23;8.93;;;21.60;99.90;;;;;;2613559;54;20157;-75
2023/05/21 19:46:43;;;;;;;9.10;8.80;;;21.40;99.90;;;;;;2613396;54;20234;-75
2023/05/21 19:52:30;;;;;;;9.73;9.33;;;21.40;99.90;;;;;;2609286;54;20174;-75
2023/05/21 19:58:22;;;;;;;6.20;6.00;;;21.30;99.90;;;;;;2612181;54;20138;-75
2023/05/21 20:04:10;;;;;;;1.97;1.87;;;21.00;99.90;;;;;;2613548;54;20462;-75
2023/05/21 20:09:58;;;;;;;1.17;1.07;;;20.50;99.90;;;;;;2613695;54;20503;-75
2023/05/21 20:15:46;;;;;;;1.43;1.20;;;20.20;99.90;;;;;;2613584;54;20142;-75
2023/05/21 20:21:34;;;;;;;5.93;4.10;;;20.00;99.90;;;;;;2613180;54;20439;-75
2023/05/21 20:27:21;;;;;;;1.80;1.70;;;19.90;99.90;;;;;;2613691;54;20168;-75
2023/05/21 20:33:09;;;;;;;6.07;5.30;;;20.00;99.90;;;;;;2614265;54;20174;-75
2023/05/21 20:39:00;;;;;;;2.77;2.57;;;20.20;99.90;;;;;;2613957;54;20440;-75
2023/05/21 20:48:53;;;;;;;3.27;3.07;;;19.90;99.90;;;;;;2613943;54;20451;-74
2023/05/21 20:54:45;;;;;;;3.00;2.90;;;19.80;99.90;;;;;;2606801;54;20430;-74
2023/05/21 21:00:33;;;;;;;3.40;3.30;;;19.60;99.90;;;;;;2612831;54;20383;-74
2023/05/21 21:06:21;;;;;;;4.80;4.60;;;19.40;99.90;;;;;;2612474;54;20134;-74
2023/05/21 21:12:08;;;;;;;4.17;3.97;;;19.40;99.90;;;;;;2611642;54;20673;-74
2023/05/21 21:17:56;;;;;;;6.93;6.50;;;19.30;99.90;;;;;;2609423;39;20533;-73
2023/05/21 21:23:44;;;;;;;3.80;3.70;;;19.20;99.90;;;;;;2609022;54;20125;-73
2023/05/21 21:29:32;;;;;;;3.70;3.60;;;19.00;99.90;;;;;;2605373;54;20162;-73
2023/05/21 21:35:20;;;;;;;4.90;4.60;;;19.00;99.90;;;;;;2608398;54;20146;-73
2023/05/21 21:41:07;;;;;;;4.03;3.83;;;18.90;99.90;;;;;;2612370;54;20199;-73
2023/05/21 21:44:21;;;;;;;4.17;3.97;;;18.80;99.90;;;;;;2610173;46;20490;-74
2023/05/21 21:46:46;;;;;;;4.13;3.83;;;18.80;99.90;;;;;;2610767;47;20166;-74
2023/05/21 21:52:38;;;;;;;3.30;3.20;;;18.60;99.90;;;;;;2612091;54;20130;-74
2023/05/21 21:58:26;;;;;;;3.70;3.50;;;18.50;99.90;;;;;;2612505;54;20403;-73
2023/05/21 22:04:15;;;;;;;3.07;2.97;;;18.50;99.90;;;;;;2611528;54;20392;-73
2023/05/21 22:10:04;;;;;;;4.17;3.97;;;18.60;99.90;;;;;;2612199;39;20817;-73
2023/05/21 22:15:53;;;;;;;2.40;2.30;;;18.50;99.90;;;;;;2611413;54;20399;-74
2023/05/21 22:21:42;;;;;;;3.33;3.13;;;18.40;99.90;;;;;;2612539;54;20387;-73
2023/05/21 22:27:29;;;;;;;2.20;2.10;;;18.10;99.90;;;;;;2612074;54;20657;-73
2023/05/21 22:33:18;;;;;;;2.30;2.20;;;18.00;99.90;;;;;;2613836;54;20139;-73
2023/05/21 22:39:06;;;;;;;2.40;2.30;;;17.90;99.90;;;;;;2613182;54;20415;-73
2023/05/21 22:48:53;;;;;;;2.60;2.50;;;17.80;99.90;;;;;;2612050;54;20395;-73
2023/05/21 22:51:58;;;;;;;2.60;2.50;;;17.80;99.90;;;;;;2612587;39;20920;-74
2023/05/21 22:54:23;;;;;;;2.50;2.40;;;17.80;99.90;;;;;;2613347;54;20407;-73
2023/05/21 23:00:11;;;;;;;2.60;2.50;;;17.80;99.90;;;;;;2611371;54;20143;-73
2023/05/21 23:06:00;;;;;;;3.00;2.90;;;17.70;99.90;;;;;;2614582;54;20419;-73
2023/05/21 23:11:48;;;;;;;2.33;2.23;;;17.70;99.90;;;;;;2612516;54;21208;-74
2023/05/21 23:17:36;;;;;;;2.00;1.90;;;17.50;99.90;;;;;;2611964;54;20162;-73
2023/05/21 23:23:24;;;;;;;2.43;2.33;;;17.60;99.90;;;;;;2609601;54;20415;-73
2023/05/21 23:29:12;;;;;;;1.30;1.20;;;17.30;99.90;;;;;;2609494;54;20134;-73
2023/05/21 23:35:00;;;;;;;2.90;2.70;;;16.90;99.90;;;;;;2609653;54;20993;-73
2023/05/21 23:40:48;;;;;;;1.93;1.83;;;16.80;99.90;;;;;;2614136;54;20342;-73
2023/05/21 23:46:37;;;;;;;1.20;1.10;;;16.70;99.90;;;;;;2613323;54;20486;-73
2023/05/21 23:52:25;;;;;;;1.20;1.10;;;16.70;99.90;;;;;;2610001;54;20399;-73
2023/05/21 23:58:13;;;;;;;1.20;1.10;;;16.70;99.90;;;;;;2609417;54;20130;-73
